Time;durP1;ratioP1;P1;durP2;ratioP2;P2;SDS_P1;SDS_P2;PMS_P1;PMS_P2;Temp;Humidity;BMP_temperature;BMP_pressure;BME280_temperature;BME280_humidity;BME280_pressure;Samples;Min_cycle;Max_cycle;Signal;HPM_P1;HPM_P2
2023/11/04 00:04:29;;;;;;;3.22;1.30;;;;;;;;;;10103510;28;20367;-71
2023/11/04 00:09:21;;;;;;;1.88;1.63;;;;;;;;;;10107369;28;20041;-71
2023/11/04 00:14:28;;;;;;;1.55;1.45;;;;;;;;;;10106127;28;20041;-73
2023/11/04 00:19:20;;;;;;;3.33;1.88;;;;;;;;;;10106821;28;20132;-73
2023/11/04 00:24:12;;;;;;;4.38;1.60;;;;;;;;;;10106485;28;20052;-73
2023/11/04 00:29:08;;;;;;;1.90;1.80;;;;;;;;;;10105391;28;20033;-73
2023/11/04 00:34:01;;;;;;;1.00;1.00;;;;;;;;;;10106272;28;20041;-73
2023/11/04 00:38:53;;;;;;;5.68;3.22;;;;;;;;;;10104346;28;20049;-73
2023/11/04 00:43:45;;;;;;;2.72;2.30;;;;;;;;;;10104278;28;20056;-72
2023/11/04 00:48:38;;;;;;;1.85;1.48;;;;;;;;;;10105443;28;20045;-73
2023/11/04 00:53:32;;;;;;;1.33;1.20;;;;;;;;;;10104395;28;20061;-73
2023/11/04 00:58:24;;;;;;;3.03;1.25;;;;;;;;;;10103591;28;20132;-71
2023/11/04 01:03:18;;;;;;;2.03;1.55;;;;;;;;;;10104536;28;20525;-73
2023/11/04 01:08:10;;;;;;;3.88;2.00;;;;;;;;;;10067656;28;20459;-73
2023/11/04 01:13:02;;;;;;;1.60;1.50;;;;;;;;;;10064846;28;20080;-72
2023/11/04 01:17:54;;;;;;;2.40;1.55;;;;;;;;;;10064468;28;20045;-73
2023/11/04 01:22:46;;;;;;;1.67;1.55;;;;;;;;;;10065211;28;20045;-72
2023/11/04 01:27:38;;;;;;;1.20;1.20;;;;;;;;;;10065272;28;20113;-72
2023/11/04 01:32:30;;;;;;;8.52;1.75;;;;;;;;;;10061832;28;20049;-73
2023/11/04 01:37:25;;;;;;;1.70;1.60;;;;;;;;;;10039486;28;20049;-73
2023/11/04 01:42:17;;;;;;;3.47;1.73;;;;;;;;;;10064108;28;20049;-73
2023/11/04 01:47:09;;;;;;;1.23;1.23;;;;;;;;;;10064286;28;20065;-71
2023/11/04 01:52:02;;;;;;;4.68;2.75;;;;;;;;;;10063120;28;20045;-70
2023/11/04 01:56:54;;;;;;;5.03;2.05;;;;;;;;;;10063452;28;20084;-71
2023/11/04 02:01:46;;;;;;;2.97;2.22;;;;;;;;;;10061378;28;20037;-70
2023/11/04 02:06:39;;;;;;;4.95;2.53;;;;;;;;;;10059563;28;20042;-71
2023/11/04 02:11:31;;;;;;;3.35;3.00;;;;;;;;;;10057737;28;20046;-71
2023/11/04 02:16:23;;;;;;;4.97;2.65;;;;;;;;;;10059349;28;20472;-71
2023/11/04 02:21:15;;;;;;;3.92;2.70;;;;;;;;;;10062667;28;20061;-71
2023/11/04 02:26:08;;;;;;;7.00;2.78;;;;;;;;;;10068024;28;20037;-71
2023/11/04 02:30:59;;;;;;;16.35;3.63;;;;;;;;;;10066569;28;20466;-71
2023/11/04 02:35:51;;;;;;;6.95;4.38;;;;;;;;;;10050072;28;20042;-70
2023/11/04 02:40:43;;;;;;;6.22;4.07;;;;;;;;;;10065399;28;20064;-71
2023/11/04 02:45:36;;;;;;;7.53;4.75;;;;;;;;;;10066168;28;20080;-73
2023/11/04 02:50:28;;;;;;;5.35;4.85;;;;;;;;;;10070110;28;20044;-73
2023/11/04 02:55:20;;;;;;;5.40;3.95;;;;;;;;;;10067369;28;20045;-72
2023/11/04 03:00:14;;;;;;;4.22;3.42;;;;;;;;;;10065630;28;20172;-73
2023/11/04 03:05:06;;;;;;;6.57;4.45;;;;;;;;;;10065511;28;20132;-72
2023/11/04 03:09:58;;;;;;;6.70;3.72;;;;;;;;;;10067303;28;20526;-72
2023/11/04 03:14:50;;;;;;;8.48;3.53;;;;;;;;;;10062429;28;20083;-71
2023/11/04 03:19:45;;;;;;;8.60;3.72;;;;;;;;;;10065618;28;20057;-73
2023/11/04 03:24:37;;;;;;;4.93;3.90;;;;;;;;;;10063878;28;20049;-72
2023/11/04 03:29:28;;;;;;;4.32;3.92;;;;;;;;;;10047577;28;20099;-72
2023/11/04 03:34:20;;;;;;;7.28;4.50;;;;;;;;;;10065443;28;20480;-71
2023/11/04 03:39:13;;;;;;;7.70;4.68;;;;;;;;;;10064488;28;20075;-72
2023/11/04 03:44:06;;;;;;;5.65;4.00;;;;;;;;;;10063877;28;20086;-72
2023/11/04 03:48:58;;;;;;;12.98;4.78;;;;;;;;;;10065359;28;20036;-72
2023/11/04 03:53:50;;;;;;;7.63;4.10;;;;;;;;;;10063060;28;20132;-71
2023/11/04 03:58:47;;;;;;;3.75;3.13;;;;;;;;;;10062386;28;20367;-71
2023/11/04 04:03:38;;;;;;;5.35;3.10;;;;;;;;;;10064206;28;20092;-72
2023/11/04 04:08:30;;;;;;;5.32;3.50;;;;;;;;;;10054485;28;20613;-72
2023/11/04 04:13:22;;;;;;;5.00;3.80;;;;;;;;;;10063722;28;20045;-71
2023/11/04 04:18:14;;;;;;;4.97;3.90;;;;;;;;;;10063057;28;20042;-72
2023/11/04 04:23:06;;;;;;;6.43;3.30;;;;;;;;;;10062547;28;20050;-72
2023/11/04 04:27:58;;;;;;;7.85;3.80;;;;;;;;;;10062381;28;20042;-72
2023/11/04 04:32:50;;;;;;;9.82;4.78;;;;;;;;;;10063135;28;20041;-71
2023/11/04 04:37:42;;;;;;;7.22;3.58;;;;;;;;;;10063236;28;20073;-72
2023/11/04 04:42:34;;;;;;;7.40;3.38;;;;;;;;;;10061619;28;20472;-72
2023/11/04 04:47:26;;;;;;;4.80;2.97;;;;;;;;;;10064914;28;20053;-71
2023/11/04 04:52:17;;;;;;;3.63;3.22;;;;;;;;;;10060255;28;20052;-72
2023/11/04 04:57:09;;;;;;;5.50;2.30;;;;;;;;;;10060621;28;20099;-70
2023/11/04 05:02:02;;;;;;;6.05;2.95;;;;;;;;;;10059158;28;20085;-72
2023/11/04 05:06:54;;;;;;;3.92;2.92;;;;;;;;;;10062419;28;20041;-72
2023/11/04 05:11:46;;;;;;;2.25;2.05;;;;;;;;;;10061369;28;20045;-71
2023/11/04 05:16:38;;;;;;;4.30;2.47;;;;;;;;;;10061265;28;20145;-71
2023/11/04 05:21:30;;;;;;;6.95;2.15;;;;;;;;;;10060676;28;20121;-72
2023/11/04 05:26:22;;;;;;;3.00;2.45;;;;;;;;;;10061788;28;20049;-72
2023/11/04 05:31:14;;;;;;;10.02;3.17;;;;;;;;;;10058981;28;20080;-72
2023/11/04 05:36:06;;;;;;;9.10;7.57;;;;;;;;;;10059782;28;20115;-72
2023/11/04 05:40:58;;;;;;;4.25;3.85;;;;;;;;;;10060650;28;20460;-72
2023/11/04 05:45:50;;;;;;;10.40;9.32;;;;;;;;;;10061347;28;20403;-71
2023/11/04 05:50:42;;;;;;;6.60;4.90;;;;;;;;;;10060587;28;20049;-71
2023/11/04 05:55:34;;;;;;;14.98;10.73;;;;;;;;;;10067119;28;20037;-72
2023/11/04 06:00:29;;;;;;;9.13;2.80;;;;;;;;;;10068675;28;20044;-72
2023/11/04 06:05:23;;;;;;;7.72;4.85;;;;;;;;;;10066991;28;20048;-72
2023/11/04 06:10:16;;;;;;;5.53;2.80;;;;;;;;;;10066287;28;20625;-72
2023/11/04 06:15:08;;;;;;;7.20;4.75;;;;;;;;;;10066997;28;20084;-72
2023/11/04 06:20:00;;;;;;;6.97;3.83;;;;;;;;;;10068675;28;20045;-71
2023/11/04 06:24:54;;;;;;;22.25;11.68;;;;;;;;;;10067262;28;20073;-71
2023/11/04 06:29:46;;;;;;;17.98;14.23;;;;;;;;;;10063224;28;20107;-72
2023/11/04 06:34:39;;;;;;;44.42;36.92;;;;;;;;;;10054783;28;20056;-71
2023/11/04 06:39:32;;;;;;;94.78;83.28;;;;;;;;;;10064168;28;20046;-73
2023/11/04 06:44:23;;;;;;;8.93;6.25;;;;;;;;;;10065913;28;20050;-77
2023/11/04 06:49:15;;;;;;;8.35;4.20;;;;;;;;;;10066662;28;20522;-77
2023/11/04 06:54:08;;;;;;;6.25;2.90;;;;;;;;;;10068600;28;20042;-77
2023/11/04 06:59:00;;;;;;;9.00;7.50;;;;;;;;;;10069422;28;20047;-77
2023/11/04 07:03:52;;;;;;;7.25;6.60;;;;;;;;;;10062151;28;20152;-77
2023/11/04 07:08:45;;;;;;;15.07;9.82;;;;;;;;;;10067642;28;20064;-78
2023/11/04 07:13:38;;;;;;;6.75;3.92;;;;;;;;;;10069151;28;20042;-75
2023/11/04 07:18:30;;;;;;;15.52;11.02;;;;;;;;;;10067833;28;20049;-78
2023/11/04 07:23:22;;;;;;;6.13;3.25;;;;;;;;;;10067850;28;20103;-76
2023/11/04 07:28:14;;;;;;;4.50;2.65;;;;;;;;;;10068686;28;20050;-77
2023/11/04 07:33:06;;;;;;;4.72;3.45;;;;;;;;;;10067292;28;20049;-78
2023/11/04 07:37:58;;;;;;;3.80;2.92;;;;;;;;;;10067569;28;20148;-77
2023/11/04 07:42:50;;;;;;;8.23;3.97;;;;;;;;;;10066454;28;20058;-77
2023/11/04 07:47:45;;;;;;;9.45;6.28;;;;;;;;;;10063892;28;20357;-77
2023/11/04 07:52:41;;;;;;;9.35;6.82;;;;;;;;;;10066573;28;20053;-78
2023/11/04 07:57:49;;;;;;;10.45;9.02;;;;;;;;;;10066491;28;20043;-76
2023/11/04 08:02:41;;;;;;;16.58;11.50;;;;;;;;;;10063124;28;20077;-78
2023/11/04 08:07:33;;;;;;;14.90;10.10;;;;;;;;;;10067117;28;20037;-78
2023/11/04 08:12:25;;;;;;;41.35;29.73;;;;;;;;;;10066578;28;20508;-78
2023/11/04 08:17:17;;;;;;;5.90;5.13;;;;;;;;;;10065735;28;20045;-77
2023/11/04 08:22:12;;;;;;;5.50;4.05;;;;;;;;;;10065719;28;20099;-78
2023/11/04 08:27:04;;;;;;;6.97;4.05;;;;;;;;;;10065772;28;20421;-78
2023/11/04 08:31:59;;;;;;;5.35;3.63;;;;;;;;;;10065379;28;20061;-78
2023/11/04 08:36:51;;;;;;;5.47;4.40;;;;;;;;;;10065666;28;20177;-77
2023/11/04 08:41:46;;;;;;;11.02;4.78;;;;;;;;;;10064055;28;20357;-80
2023/11/04 08:46:38;;;;;;;10.32;5.32;;;;;;;;;;10065182;28;20049;-78
2023/11/04 08:51:31;;;;;;;9.88;4.40;;;;;;;;;;10064478;28;20482;-78
2023/11/04 08:56:23;;;;;;;6.20;4.70;;;;;;;;;;10065499;28;20049;-76
2023/11/04 09:01:15;;;;;;;9.73;4.97;;;;;;;;;;10063706;28;20129;-74
2023/11/04 09:06:08;;;;;;;9.32;4.30;;;;;;;;;;10064275;28;20049;-73
2023/11/04 09:11:00;;;;;;;9.77;4.78;;;;;;;;;;10064601;28;20045;-73
2023/11/04 09:15:52;;;;;;;7.78;3.60;;;;;;;;;;10060757;28;20084;-74
2023/11/04 09:20:44;;;;;;;7.93;5.60;;;;;;;;;;10060723;28;20042;-75
2023/11/04 09:25:36;;;;;;;5.15;4.60;;;;;;;;;;10065367;28;20092;-74
2023/11/04 09:30:28;;;;;;;10.55;4.50;;;;;;;;;;10103700;23;20056;-73
2023/11/04 09:35:20;;;;;;;9.05;4.65;;;;;;;;;;10928326;22;20045;-74
2023/11/04 09:40:24;;;;;;;5.38;3.65;;;;;;;;;;10106650;23;20474;-73
2023/11/04 09:51:13;;;;;;;8.45;5.22;;;;;;;;;;12036035;23;20175;31
2023/11/04 09:56:06;;;;;;;8.13;5.47;;;;;;;;;;9863829;23;20129;-73
2023/11/04 10:00:58;;;;;;;5.07;4.57;;;;;;;;;;9922917;23;20052;-74
2023/11/04 10:05:51;;;;;;;6.82;4.75;;;;;;;;;;9795985;29;20036;-74
2023/11/04 10:10:42;;;;;;;6.03;5.28;;;;;;;;;;9833314;29;20040;-74
2023/11/04 10:18:08;;;;;;;6.72;4.35;;;;;;;;;;10026629;27;20463;-72
2023/11/04 10:23:00;;;;;;;10.38;5.03;;;;;;;;;;10005194;28;20485;-73
2023/11/04 10:27:52;;;;;;;8.85;5.65;;;;;;;;;;10017690;28;20141;-73
2023/11/04 10:32:47;;;;;;;10.27;6.45;;;;;;;;;;9987396;28;20523;-73
2023/11/04 10:37:48;;;;;;;15.23;6.63;;;;;;;;;;10017150;28;20453;-73
2023/11/04 10:42:48;;;;;;;7.90;5.88;;;;;;;;;;9988836;28;20541;-73
2023/11/04 10:47:53;;;;;;;9.00;6.15;;;;;;;;;;9993991;28;20084;-73
2023/11/04 10:52:52;;;;;;;7.10;5.85;;;;;;;;;;9996287;28;20109;-73
2023/11/04 10:58:16;;;;;;;9.63;7.97;;;;;;;;;;10016902;28;20108;-73
2023/11/04 11:03:09;;;;;;;10.48;7.30;;;;;;;;;;10012333;28;20377;-73
2023/11/04 11:08:03;;;;;;;11.48;7.15;;;;;;;;;;9991798;28;20049;-73
2023/11/04 11:13:00;;;;;;;10.23;7.28;;;;;;;;;;10005534;28;20042;-73
2023/11/04 11:18:02;;;;;;;9.13;7.30;;;;;;;;;;10018030;28;20054;-72
2023/11/04 11:22:58;;;;;;;7.90;6.63;;;;;;;;;;10017525;28;21876;-73
2023/11/04 11:27:49;;;;;;;8.32;7.53;;;;;;;;;;10001234;28;20050;-73
2023/11/04 11:32:42;;;;;;;9.65;8.65;;;;;;;;;;9973585;28;20050;-73
2023/11/04 11:37:33;;;;;;;8.57;7.70;;;;;;;;;;9965243;28;20047;-73
2023/11/04 11:42:26;;;;;;;8.10;6.10;;;;;;;;;;9950892;28;20433;-74
2023/11/04 11:47:18;;;;;;;7.40;6.45;;;;;;;;;;9949204;28;20042;-74
2023/11/04 11:52:10;;;;;;;9.48;8.13;;;;;;;;;;9951770;28;20418;-73
2023/11/04 11:57:03;;;;;;;11.38;7.65;;;;;;;;;;9940814;28;20057;-74
2023/11/04 12:01:55;;;;;;;17.77;8.13;;;;;;;;;;9949672;28;20517;-72
2023/11/04 12:06:50;;;;;;;11.40;8.00;;;;;;;;;;9947765;28;20043;-74
2023/11/04 12:11:42;;;;;;;8.00;6.75;;;;;;;;;;9949387;28;20062;-73
2023/11/04 12:16:34;;;;;;;12.57;8.18;;;;;;;;;;9951103;28;20370;-74
2023/11/04 12:21:26;;;;;;;11.85;7.63;;;;;;;;;;9952818;28;20097;-74
2023/11/04 12:26:18;;;;;;;11.88;7.97;;;;;;;;;;9940254;28;20457;-73
2023/11/04 12:31:12;;;;;;;10.43;6.88;;;;;;;;;;9948392;28;20422;-75
2023/11/04 12:36:08;;;;;;;8.65;6.35;;;;;;;;;;9948454;28;20125;-74
2023/11/04 12:41:00;;;;;;;9.07;6.40;;;;;;;;;;9948228;28;20366;-73
2023/11/04 12:45:53;;;;;;;8.25;6.45;;;;;;;;;;9950330;28;20047;-73
2023/11/04 12:50:45;;;;;;;14.85;6.88;;;;;;;;;;9949006;28;20090;-76
2023/11/04 12:55:38;;;;;;;9.30;6.32;;;;;;;;;;9949793;28;20051;-74
2023/11/04 13:00:30;;;;;;;8.95;6.13;;;;;;;;;;9950057;28;20049;-73
2023/11/04 13:05:23;;;;;;;8.30;5.55;;;;;;;;;;9962026;28;20042;-74
2023/11/04 13:10:15;;;;;;;8.93;6.85;;;;;;;;;;9986443;28;20157;-74
2023/11/04 13:15:08;;;;;;;10.13;6.43;;;;;;;;;;9987991;28;20062;-73
2023/11/04 13:20:00;;;;;;;11.35;10.00;;;;;;;;;;9987965;28;20362;-73
2023/11/04 13:24:51;;;;;;;10.57;6.75;;;;;;;;;;9986950;28;20084;-73
2023/11/04 13:29:44;;;;;;;8.57;7.70;;;;;;;;;;9987765;28;20046;-74
2023/11/04 13:34:35;;;;;;;8.55;7.72;;;;;;;;;;9964474;28;20457;-74
2023/11/04 13:39:28;;;;;;;11.55;8.43;;;;;;;;;;9987139;28;20046;-74
2023/11/04 13:44:20;;;;;;;12.43;7.13;;;;;;;;;;9987501;28;20045;-73
2023/11/04 13:49:12;;;;;;;12.50;8.27;;;;;;;;;;9986235;28;20457;-76
2023/11/04 13:54:05;;;;;;;11.45;7.95;;;;;;;;;;9979804;28;20061;-73
2023/11/04 13:58:57;;;;;;;11.35;8.85;;;;;;;;;;9941628;28;20074;-74
2023/11/04 14:03:49;;;;;;;17.45;10.45;;;;;;;;;;9947149;28;20055;-74
2023/11/04 14:08:41;;;;;;;12.45;9.93;;;;;;;;;;9947622;28;20066;-74
2023/11/04 14:13:33;;;;;;;11.30;8.68;;;;;;;;;;9947460;28;20078;-73
2023/11/04 14:18:24;;;;;;;10.13;9.13;;;;;;;;;;9946258;28;20050;-73
2023/11/04 14:23:16;;;;;;;15.65;11.90;;;;;;;;;;9946180;28;20050;-73
2023/11/04 14:28:08;;;;;;;14.52;10.32;;;;;;;;;;9946689;28;20043;-74
2023/11/04 14:33:01;;;;;;;15.30;9.57;;;;;;;;;;9944819;28;20082;-77
2023/11/04 14:37:54;;;;;;;10.43;9.32;;;;;;;;;;9946923;28;20051;-75
2023/11/04 14:42:46;;;;;;;14.13;10.95;;;;;;;;;;9938119;28;20043;-75
2023/11/04 14:47:39;;;;;;;21.75;11.68;;;;;;;;;;9945981;28;20049;-75
2023/11/04 14:52:31;;;;;;;15.82;11.65;;;;;;;;;;9946638;28;20097;-75
2023/11/04 14:57:23;;;;;;;16.33;9.88;;;;;;;;;;9947256;28;20043;-75
2023/11/04 15:02:16;;;;;;;11.15;8.13;;;;;;;;;;9948984;28;20065;-74
2023/11/04 15:07:09;;;;;;;12.05;9.38;;;;;;;;;;9945342;28;20113;-75
2023/11/04 15:12:01;;;;;;;13.65;9.85;;;;;;;;;;9954200;28;20140;-74
2023/11/04 15:16:54;;;;;;;10.35;8.88;;;;;;;;;;9953607;28;20054;-75
2023/11/04 15:21:46;;;;;;;9.82;8.77;;;;;;;;;;9953043;28;20066;-74
2023/11/04 15:26:38;;;;;;;13.55;8.57;;;;;;;;;;9953202;28;20046;-75
2023/11/04 15:31:30;;;;;;;14.80;10.68;;;;;;;;;;9953010;28;20043;-74
2023/11/04 15:36:22;;;;;;;13.68;10.38;;;;;;;;;;9952648;28;20138;-75
2023/11/04 15:41:14;;;;;;;14.60;10.85;;;;;;;;;;9953393;28;20035;-75
2023/11/04 15:46:06;;;;;;;14.02;11.73;;;;;;;;;;9952601;28;20492;-74
2023/11/04 15:50:59;;;;;;;16.33;12.50;;;;;;;;;;9953009;28;20497;-70
2023/11/04 15:55:54;;;;;;;17.63;11.52;;;;;;;;;;9946700;28;20101;-70
2023/11/04 16:00:46;;;;;;;17.02;14.90;;;;;;;;;;9951467;28;20042;-71
2023/11/04 16:05:38;;;;;;;11.93;10.02;;;;;;;;;;9951682;28;20472;-73
2023/11/04 16:10:30;;;;;;;12.82;9.25;;;;;;;;;;9951801;28;20054;-70
2023/11/04 16:15:22;;;;;;;12.23;9.07;;;;;;;;;;9951517;28;20074;-71
2023/11/04 16:20:14;;;;;;;12.05;9.80;;;;;;;;;;9951336;28;20042;-71
2023/11/04 16:25:06;;;;;;;15.50;9.35;;;;;;;;;;9950709;28;20074;-70
2023/11/04 16:29:58;;;;;;;12.73;9.90;;;;;;;;;;9950415;28;20050;-72
2023/11/04 16:34:52;;;;;;;13.60;9.90;;;;;;;;;;9950856;28;20462;-71
2023/11/04 16:39:44;;;;;;;15.75;12.77;;;;;;;;;;9950813;28;20050;-71
2023/11/04 16:44:36;;;;;;;14.23;12.20;;;;;;;;;;9928145;28;20051;-70
2023/11/04 16:49:28;;;;;;;14.13;11.65;;;;;;;;;;9950116;28;20043;-70
2023/11/04 16:54:20;;;;;;;12.95;9.55;;;;;;;;;;9968429;28;20077;-70
2023/11/04 16:59:11;;;;;;;17.65;9.70;;;;;;;;;;9957223;28;20125;-71
2023/11/04 17:04:03;;;;;;;11.82;9.13;;;;;;;;;;9961475;28;20070;-71
2023/11/04 17:08:56;;;;;;;13.45;11.50;;;;;;;;;;9954354;28;20081;-71
2023/11/04 17:13:47;;;;;;;20.13;15.73;;;;;;;;;;9963133;28;20078;-71
2023/11/04 17:18:41;;;;;;;22.58;19.80;;;;;;;;;;9950176;28;20058;-71
2023/11/04 17:23:33;;;;;;;31.88;23.90;;;;;;;;;;9956256;28;20059;-70
2023/11/04 17:28:25;;;;;;;27.83;19.65;;;;;;;;;;9979090;28;20046;-71
2023/11/04 17:33:16;;;;;;;20.75;18.42;;;;;;;;;;9966424;28;20079;-71
2023/11/04 17:38:08;;;;;;;25.77;22.77;;;;;;;;;;9967450;28;20046;-71
2023/11/04 17:43:00;;;;;;;28.35;23.13;;;;;;;;;;9973438;28;20049;-71
2023/11/04 17:47:55;;;;;;;34.60;22.80;;;;;;;;;;9950720;28;20489;-70
2023/11/04 17:52:48;;;;;;;22.30;19.70;;;;;;;;;;9970006;28;20294;-71
2023/11/04 17:57:41;;;;;;;51.75;36.70;;;;;;;;;;9969811;28;20062;-70
2023/11/04 18:02:33;;;;;;;27.13;22.23;;;;;;;;;;9980908;28;20063;-71
2023/11/04 18:07:28;;;;;;;31.92;24.70;;;;;;;;;;9982094;28;20049;-71
2023/11/04 18:12:19;;;;;;;33.97;23.55;;;;;;;;;;9986702;28;20081;-70
2023/11/04 18:17:11;;;;;;;29.92;25.00;;;;;;;;;;9985419;28;20425;-70
2023/11/04 18:22:03;;;;;;;26.02;23.23;;;;;;;;;;9985227;28;20121;-70
2023/11/04 18:26:55;;;;;;;32.20;28.40;;;;;;;;;;9983829;28;20105;-71
2023/11/04 18:31:47;;;;;;;46.08;33.78;;;;;;;;;;9985176;28;20078;-70
2023/11/04 18:36:39;;;;;;;24.60;17.95;;;;;;;;;;9987930;28;20058;-71
2023/11/04 18:41:31;;;;;;;19.55;16.77;;;;;;;;;;9990941;28;20147;-71
2023/11/04 18:46:22;;;;;;;13.63;10.13;;;;;;;;;;9993348;28;20389;-70
2023/11/04 18:51:18;;;;;;;15.75;9.52;;;;;;;;;;9993158;28;20065;-70
2023/11/04 18:56:11;;;;;;;11.30;8.48;;;;;;;;;;9989974;28;20470;-71
2023/11/04 19:01:04;;;;;;;11.52;10.25;;;;;;;;;;9980241;28;20077;-70
2023/11/04 19:05:56;;;;;;;21.25;15.65;;;;;;;;;;9992608;28;20038;-71
2023/11/04 19:10:48;;;;;;;22.42;20.02;;;;;;;;;;9941678;28;20053;-71
2023/11/04 19:15:41;;;;;;;24.20;20.80;;;;;;;;;;9929229;28;20075;-70
2023/11/04 19:20:33;;;;;;;17.60;15.85;;;;;;;;;;9935235;28;20050;-71
2023/11/04 19:25:25;;;;;;;22.75;20.15;;;;;;;;;;9931480;28;20524;-71
2023/11/04 19:30:17;;;;;;;18.88;15.65;;;;;;;;;;9920951;28;20061;-70
2023/11/04 19:35:09;;;;;;;27.90;15.40;;;;;;;;;;9920814;28;20134;-70
2023/11/04 19:40:01;;;;;;;34.63;31.10;;;;;;;;;;9918499;28;20135;-71
2023/11/04 19:44:53;;;;;;;19.92;13.65;;;;;;;;;;9917269;28;20490;-71
2023/11/04 19:49:45;;;;;;;31.30;24.15;;;;;;;;;;9916730;28;20130;-71
2023/11/04 19:54:37;;;;;;;10.77;8.55;;;;;;;;;;9950773;28;20061;-70
2023/11/04 19:59:29;;;;;;;6.90;4.82;;;;;;;;;;9919522;28;20055;-70
2023/11/04 20:04:21;;;;;;;8.32;7.00;;;;;;;;;;9941839;28;20054;-71
2023/11/04 20:09:13;;;;;;;14.85;9.02;;;;;;;;;;9951917;28;20129;-71
2023/11/04 20:14:04;;;;;;;12.88;11.55;;;;;;;;;;9952036;28;20134;-71
2023/11/04 20:18:56;;;;;;;14.20;11.43;;;;;;;;;;9952072;28;20134;-71
2023/11/04 20:23:48;;;;;;;10.80;7.72;;;;;;;;;;9951527;28;20064;-73
2023/11/04 20:28:41;;;;;;;12.63;11.15;;;;;;;;;;9951413;28;20474;-71
2023/11/04 20:33:34;;;;;;;12.05;10.85;;;;;;;;;;9951932;28;20051;-71
2023/11/04 20:38:26;;;;;;;5.55;4.28;;;;;;;;;;9950955;28;20519;-71
2023/11/04 20:43:18;;;;;;;6.78;4.43;;;;;;;;;;9949880;28;20053;-71
2023/11/04 20:48:10;;;;;;;5.13;2.60;;;;;;;;;;9949596;28;20521;-71
2023/11/04 20:53:02;;;;;;;5.03;3.45;;;;;;;;;;9950479;28;20042;-70
2023/11/04 20:57:53;;;;;;;3.03;2.28;;;;;;;;;;9949032;28;20054;-71
2023/11/04 21:02:46;;;;;;;2.80;2.13;;;;;;;;;;9949414;28;20141;-71
2023/11/04 21:07:37;;;;;;;2.75;2.55;;;;;;;;;;9950137;28;20122;-71
2023/11/04 21:12:29;;;;;;;9.82;3.30;;;;;;;;;;9949608;28;20047;-70
2023/11/04 21:17:21;;;;;;;5.68;3.47;;;;;;;;;;9948744;28;20142;-71
2023/11/04 21:22:13;;;;;;;2.28;2.08;;;;;;;;;;9949147;28;20102;-70
2023/11/04 21:27:05;;;;;;;2.40;1.90;;;;;;;;;;9948667;28;20098;-70
2023/11/04 21:31:57;;;;;;;4.28;1.95;;;;;;;;;;9948936;28;20437;-70
2023/11/04 21:36:49;;;;;;;3.67;1.92;;;;;;;;;;9949321;28;20047;-71
2023/11/04 21:41:43;;;;;;;4.03;3.63;;;;;;;;;;9948908;28;20089;-71
2023/11/04 21:46:38;;;;;;;3.80;3.47;;;;;;;;;;9948589;28;20042;-70
2023/11/04 21:51:30;;;;;;;8.80;6.00;;;;;;;;;;9948646;28;20113;-71
2023/11/04 21:56:22;;;;;;;7.18;6.07;;;;;;;;;;9948081;28;20046;-70
2023/11/04 22:01:15;;;;;;;4.30;2.85;;;;;;;;;;9947597;28;20516;-70
2023/11/04 22:06:07;;;;;;;4.40;2.80;;;;;;;;;;9932963;28;20047;-71
2023/11/04 22:10:59;;;;;;;4.30;3.90;;;;;;;;;;9967728;28;20097;-71
2023/11/04 22:15:50;;;;;;;3.85;2.70;;;;;;;;;;9985623;28;20366;-71
2023/11/04 22:20:42;;;;;;;10.02;3.97;;;;;;;;;;9986546;28;20042;-70
2023/11/04 22:25:35;;;;;;;3.67;3.38;;;;;;;;;;9986533;28;20042;-70
2023/11/04 22:30:26;;;;;;;6.43;4.90;;;;;;;;;;9985449;28;20096;-71
2023/11/04 22:35:18;;;;;;;8.45;7.45;;;;;;;;;;9986013;28;20125;-71
2023/11/04 22:40:10;;;;;;;11.77;8.88;;;;;;;;;;9985251;28;20062;-71
2023/11/04 22:45:03;;;;;;;7.10;6.40;;;;;;;;;;9985669;28;20380;-70
2023/11/04 22:49:55;;;;;;;5.60;4.97;;;;;;;;;;9985505;28;20050;-70
2023/11/04 22:54:47;;;;;;;7.80;5.10;;;;;;;;;;9985601;28;20055;-71
2023/11/04 22:59:39;;;;;;;8.95;3.97;;;;;;;;;;9985484;28;20050;-70
2023/11/04 23:04:31;;;;;;;4.65;3.17;;;;;;;;;;9985600;28;20129;-70
2023/11/04 23:09:23;;;;;;;9.38;7.72;;;;;;;;;;9986365;28;20057;-71
2023/11/04 23:14:15;;;;;;;11.07;9.85;;;;;;;;;;9985699;28;20054;-71
2023/11/04 23:19:07;;;;;;;15.95;12.45;;;;;;;;;;9983391;28;20137;-71
2023/11/04 23:23:59;;;;;;;12.23;10.27;;;;;;;;;;9975402;28;20047;-70
2023/11/04 23:28:51;;;;;;;12.48;10.80;;;;;;;;;;9951764;28;20097;-71
2023/11/04 23:33:43;;;;;;;14.85;13.40;;;;;;;;;;9954830;28;20039;-70
2023/11/04 23:38:35;;;;;;;16.48;13.23;;;;;;;;;;9943943;28;20466;-72
2023/11/04 23:43:27;;;;;;;15.18;13.57;;;;;;;;;;9954116;28;20140;-71
2023/11/04 23:48:19;;;;;;;15.23;13.63;;;;;;;;;;9954947;28;20350;-71
2023/11/04 23:53:12;;;;;;;20.50;18.33;;;;;;;;;;9954526;28;20116;-70
2023/11/04 23:58:04;;;;;;;15.18;11.88;;;;;;;;;;9954935;28;20461;-71
